sensor_id;sensor_type;location;lat;lon;timestamp;P1;durP1;ratioP1;P2;durP2;ratioP2
38425;SDS011;24210;51.460;6.148;2023-04-24T00:00:53;2.78;;;2.33;;
38425;SDS011;24210;51.460;6.148;2023-04-24T00:03:21;3.63;;;3.35;;
38425;SDS011;24210;51.460;6.148;2023-04-24T00:05:47;6.97;;;3.90;;
38425;SDS011;24210;51.460;6.148;2023-04-24T00:08:12;3.57;;;3.27;;
38425;SDS011;24210;51.460;6.148;2023-04-24T00:10:37;3.43;;;2.53;;
38425;SDS011;24210;51.460;6.148;2023-04-24T00:13:03;6.47;;;3.53;;
38425;SDS011;24210;51.460;6.148;2023-04-24T00:15:28;8.00;;;3.40;;
38425;SDS011;24210;51.460;6.148;2023-04-24T00:17:53;3.43;;;2.73;;
38425;SDS011;24210;51.460;6.148;2023-04-24T00:20:18;3.70;;;2.07;;
38425;SDS011;24210;51.460;6.148;2023-04-24T00:22:44;4.43;;;3.70;;
38425;SDS011;24210;51.460;6.148;2023-04-24T00:25:09;7.27;;;3.00;;
38425;SDS011;24210;51.460;6.148;2023-04-24T00:27:34;5.80;;;3.27;;
38425;SDS011;24210;51.460;6.148;2023-04-24T00:30:02;3.65;;;3.25;;
38425;SDS011;24210;51.460;6.148;2023-04-24T00:32:27;3.97;;;2.83;;
38425;SDS011;24210;51.460;6.148;2023-04-24T00:34:52;5.17;;;3.87;;
38425;SDS011;24210;51.460;6.148;2023-04-24T00:37:17;4.60;;;3.83;;
38425;SDS011;24210;51.460;6.148;2023-04-24T00:39:43;4.17;;;3.70;;
38425;SDS011;24210;51.460;6.148;2023-04-24T00:42:08;3.90;;;2.63;;
38425;SDS011;24210;51.460;6.148;2023-04-24T00:44:33;8.53;;;4.83;;
38425;SDS011;24210;51.460;6.148;2023-04-24T00:46:59;3.78;;;2.90;;
38425;SDS011;24210;51.460;6.148;2023-04-24T00:49:25;5.90;;;4.47;;
38425;SDS011;24210;51.460;6.148;2023-04-24T00:51:51;6.27;;;4.97;;
38425;SDS011;24210;51.460;6.148;2023-04-24T00:54:16;7.57;;;5.30;;
38425;SDS011;24210;51.460;6.148;2023-04-24T00:56:42;5.75;;;5.15;;
38425;SDS011;24210;51.460;6.148;2023-04-24T00:59:08;8.10;;;4.85;;
38425;SDS011;24210;51.460;6.148;2023-04-24T01:01:33;6.90;;;4.17;;
38425;SDS011;24210;51.460;6.148;2023-04-24T01:03:58;10.03;;;5.40;;
38425;SDS011;24210;51.460;6.148;2023-04-24T01:06:24;7.03;;;4.60;;
38425;SDS011;24210;51.460;6.148;2023-04-24T01:08:52;6.70;;;4.68;;
38425;SDS011;24210;51.460;6.148;2023-04-24T01:11:17;7.67;;;5.83;;
38425;SDS011;24210;51.460;6.148;2023-04-24T01:13:42;9.37;;;6.00;;
38425;SDS011;24210;51.460;6.148;2023-04-24T01:16:08;7.33;;;5.57;;
38425;SDS011;24210;51.460;6.148;2023-04-24T01:18:33;10.30;;;6.47;;
38425;SDS011;24210;51.460;6.148;2023-04-24T01:20:59;7.97;;;5.53;;
38425;SDS011;24210;51.460;6.148;2023-04-24T01:23:24;6.27;;;4.93;;
38425;SDS011;24210;51.460;6.148;2023-04-24T01:25:50;8.45;;;6.07;;
38425;SDS011;24210;51.460;6.148;2023-04-24T01:28:16;11.80;;;5.77;;
38425;SDS011;24210;51.460;6.148;2023-04-24T01:30:42;8.03;;;5.60;;
38425;SDS011;24210;51.460;6.148;2023-04-24T01:33:07;7.23;;;6.43;;
38425;SDS011;24210;51.460;6.148;2023-04-24T01:35:32;7.80;;;6.27;;
38425;SDS011;24210;51.460;6.148;2023-04-24T01:37:58;9.93;;;7.00;;
38425;SDS011;24210;51.460;6.148;2023-04-24T01:40:23;11.57;;;7.00;;
38425;SDS011;24210;51.460;6.148;2023-04-24T01:42:48;10.27;;;7.03;;
38425;SDS011;24210;51.460;6.148;2023-04-24T01:45:14;12.43;;;7.37;;
38425;SDS011;24210;51.460;6.148;2023-04-24T01:47:39;12.73;;;7.73;;
38425;SDS011;24210;51.460;6.148;2023-04-24T01:50:05;8.97;;;7.13;;
38425;SDS011;24210;51.460;6.148;2023-04-24T01:52:30;10.90;;;7.03;;
38425;SDS011;24210;51.460;6.148;2023-04-24T01:55:01;10.85;;;7.25;;
38425;SDS011;24210;51.460;6.148;2023-04-24T01:57:26;11.80;;;7.63;;
38425;SDS011;24210;51.460;6.148;2023-04-24T01:59:52;10.57;;;7.47;;
38425;SDS011;24210;51.460;6.148;2023-04-24T02:02:17;14.07;;;8.03;;
38425;SDS011;24210;51.460;6.148;2023-04-24T02:04:42;11.57;;;7.33;;
38425;SDS011;24210;51.460;6.148;2023-04-24T02:07:08;14.67;;;9.03;;
38425;SDS011;24210;51.460;6.148;2023-04-24T02:09:33;15.00;;;10.07;;
38425;SDS011;24210;51.460;6.148;2023-04-24T02:11:58;13.77;;;8.80;;
38425;SDS011;24210;51.460;6.148;2023-04-24T02:14:23;13.60;;;7.10;;
38425;SDS011;24210;51.460;6.148;2023-04-24T02:16:48;11.77;;;8.63;;
38425;SDS011;24210;51.460;6.148;2023-04-24T02:19:14;13.00;;;8.33;;
38425;SDS011;24210;51.460;6.148;2023-04-24T02:21:39;13.33;;;9.43;;
38425;SDS011;24210;51.460;6.148;2023-04-24T02:24:04;17.87;;;9.70;;
38425;SDS011;24210;51.460;6.148;2023-04-24T02:26:29;12.63;;;7.93;;
38425;SDS011;24210;51.460;6.148;2023-04-24T02:28:56;15.55;;;9.60;;
38425;SDS011;24210;51.460;6.148;2023-04-24T02:31:21;13.47;;;9.17;;
38425;SDS011;24210;51.460;6.148;2023-04-24T02:33:47;14.60;;;9.50;;
38425;SDS011;24210;51.460;6.148;2023-04-24T02:36:12;14.13;;;11.03;;
38425;SDS011;24210;51.460;6.148;2023-04-24T02:38:38;14.27;;;8.10;;
38425;SDS011;24210;51.460;6.148;2023-04-24T02:41:03;13.70;;;10.10;;
38425;SDS011;24210;51.460;6.148;2023-04-24T02:43:31;15.50;;;9.75;;
38425;SDS011;24210;51.460;6.148;2023-04-24T02:45:56;11.47;;;9.77;;
38425;SDS011;24210;51.460;6.148;2023-04-24T02:48:21;13.27;;;10.00;;
38425;SDS011;24210;51.460;6.148;2023-04-24T02:50:46;11.60;;;9.93;;
38425;SDS011;24210;51.460;6.148;2023-04-24T02:53:12;13.83;;;10.37;;
38425;SDS011;24210;51.460;6.148;2023-04-24T02:55:37;11.57;;;9.93;;
38425;SDS011;24210;51.460;6.148;2023-04-24T02:58:03;18.23;;;9.93;;
38425;SDS011;24210;51.460;6.148;2023-04-24T03:00:28;11.20;;;9.10;;
38425;SDS011;24210;51.460;6.148;2023-04-24T03:02:53;17.30;;;9.23;;
38425;SDS011;24210;51.460;6.148;2023-04-24T03:05:18;15.30;;;10.33;;
38425;SDS011;24210;51.460;6.148;2023-04-24T03:07:44;17.27;;;10.13;;
38425;SDS011;24210;51.460;6.148;2023-04-24T03:10:10;12.45;;;9.25;;
38425;SDS011;24210;51.460;6.148;2023-04-24T03:12:35;17.40;;;9.93;;
38425;SDS011;24210;51.460;6.148;2023-04-24T03:15:01;13.90;;;11.20;;
38425;SDS011;24210;51.460;6.148;2023-04-24T03:17:26;10.00;;;8.27;;
38425;SDS011;24210;51.460;6.148;2023-04-24T03:19:51;14.80;;;10.43;;
38425;SDS011;24210;51.460;6.148;2023-04-24T03:22:16;10.80;;;7.70;;
38425;SDS011;24210;51.460;6.148;2023-04-24T03:24:41;12.37;;;9.03;;
38425;SDS011;24210;51.460;6.148;2023-04-24T03:27:07;15.90;;;10.00;;
38425;SDS011;24210;51.460;6.148;2023-04-24T03:29:32;18.30;;;11.53;;
38425;SDS011;24210;51.460;6.148;2023-04-24T03:31:57;14.47;;;10.37;;
38425;SDS011;24210;51.460;6.148;2023-04-24T03:34:22;14.80;;;11.33;;
38425;SDS011;24210;51.460;6.148;2023-04-24T03:36:48;13.43;;;9.30;;
38425;SDS011;24210;51.460;6.148;2023-04-24T03:39:13;16.37;;;8.50;;
38425;SDS011;24210;51.460;6.148;2023-04-24T03:41:38;10.13;;;9.00;;
38425;SDS011;24210;51.460;6.148;2023-04-24T03:44:03;15.17;;;9.20;;
38425;SDS011;24210;51.460;6.148;2023-04-24T03:46:29;15.53;;;9.67;;
38425;SDS011;24210;51.460;6.148;2023-04-24T03:48:54;10.73;;;9.43;;
38425;SDS011;24210;51.460;6.148;2023-04-24T03:51:19;14.70;;;10.10;;
38425;SDS011;24210;51.460;6.148;2023-04-24T03:53:45;13.23;;;9.43;;
38425;SDS011;24210;51.460;6.148;2023-04-24T03:56:10;14.50;;;9.30;;
38425;SDS011;24210;51.460;6.148;2023-04-24T03:58:35;10.90;;;7.97;;
38425;SDS011;24210;51.460;6.148;2023-04-24T04:01:01;10.60;;;7.50;;
38425;SDS011;24210;51.460;6.148;2023-04-24T04:03:26;14.47;;;9.57;;
38425;SDS011;24210;51.460;6.148;2023-04-24T04:05:51;10.60;;;7.93;;
38425;SDS011;24210;51.460;6.148;2023-04-24T04:08:16;8.57;;;7.70;;
38425;SDS011;24210;51.460;6.148;2023-04-24T04:10:42;15.07;;;9.03;;
38425;SDS011;24210;51.460;6.148;2023-04-24T04:13:07;9.60;;;8.10;;
38425;SDS011;24210;51.460;6.148;2023-04-24T04:15:32;15.13;;;9.33;;
38425;SDS011;24210;51.460;6.148;2023-04-24T04:17:57;10.20;;;8.00;;
38425;SDS011;24210;51.460;6.148;2023-04-24T04:20:22;10.63;;;8.23;;
38425;SDS011;24210;51.460;6.148;2023-04-24T04:22:48;10.10;;;7.47;;
38425;SDS011;24210;51.460;6.148;2023-04-24T04:25:13;11.17;;;7.07;;
38425;SDS011;24210;51.460;6.148;2023-04-24T04:27:38;9.30;;;7.73;;
38425;SDS011;24210;51.460;6.148;2023-04-24T04:30:04;12.27;;;8.73;;
38425;SDS011;24210;51.460;6.148;2023-04-24T04:32:32;7.73;;;6.30;;
38425;SDS011;24210;51.460;6.148;2023-04-24T04:35:00;10.18;;;7.32;;
38425;SDS011;24210;51.460;6.148;2023-04-24T04:37:29;9.00;;;7.13;;
38425;SDS011;24210;51.460;6.148;2023-04-24T04:39:54;8.27;;;6.47;;
38425;SDS011;24210;51.460;6.148;2023-04-24T04:42:20;8.60;;;3.60;;
38425;SDS011;24210;51.460;6.148;2023-04-24T04:44:45;9.10;;;5.83;;
38425;SDS011;24210;51.460;6.148;2023-04-24T04:47:11;6.90;;;6.13;;
38425;SDS011;24210;51.460;6.148;2023-04-24T04:49:37;6.00;;;5.37;;
38425;SDS011;24210;51.460;6.148;2023-04-24T04:52:03;6.30;;;5.45;;
38425;SDS011;24210;51.460;6.148;2023-04-24T04:54:28;6.50;;;5.50;;
38425;SDS011;24210;51.460;6.148;2023-04-24T04:56:53;8.53;;;7.73;;
38425;SDS011;24210;51.460;6.148;2023-04-24T04:59:19;7.63;;;5.67;;
38425;SDS011;24210;51.460;6.148;2023-04-24T05:01:44;7.07;;;6.33;;
38425;SDS011;24210;51.460;6.148;2023-04-24T05:04:09;7.13;;;5.73;;
38425;SDS011;24210;51.460;6.148;2023-04-24T05:06:35;10.63;;;6.60;;
38425;SDS011;24210;51.460;6.148;2023-04-24T05:09:00;8.43;;;6.57;;
38425;SDS011;24210;51.460;6.148;2023-04-24T05:11:25;8.17;;;7.30;;
38425;SDS011;24210;51.460;6.148;2023-04-24T05:13:50;7.27;;;6.53;;
38425;SDS011;24210;51.460;6.148;2023-04-24T05:16:16;9.63;;;6.80;;
38425;SDS011;24210;51.460;6.148;2023-04-24T05:18:41;14.47;;;7.13;;
38425;SDS011;24210;51.460;6.148;2023-04-24T05:21:06;8.70;;;7.57;;
38425;SDS011;24210;51.460;6.148;2023-04-24T05:23:31;7.53;;;6.70;;
38425;SDS011;24210;51.460;6.148;2023-04-24T05:25:56;8.10;;;6.27;;
38425;SDS011;24210;51.460;6.148;2023-04-24T05:28:22;8.03;;;5.93;;
38425;SDS011;24210;51.460;6.148;2023-04-24T05:30:47;8.93;;;5.97;;
38425;SDS011;24210;51.460;6.148;2023-04-24T05:33:12;10.33;;;6.30;;
38425;SDS011;24210;51.460;6.148;2023-04-24T05:35:39;7.38;;;4.22;;
38425;SDS011;24210;51.460;6.148;2023-04-24T05:38:05;9.30;;;6.30;;
38425;SDS011;24210;51.460;6.148;2023-04-24T05:40:30;9.17;;;7.10;;
38425;SDS011;24210;51.460;6.148;2023-04-24T05:42:55;7.17;;;6.47;;
38425;SDS011;24210;51.460;6.148;2023-04-24T05:45:20;10.67;;;6.63;;
38425;SDS011;24210;51.460;6.148;2023-04-24T05:47:45;6.43;;;5.63;;
38425;SDS011;24210;51.460;6.148;2023-04-24T05:50:11;7.23;;;6.33;;
38425;SDS011;24210;51.460;6.148;2023-04-24T05:52:36;7.83;;;5.93;;
38425;SDS011;24210;51.460;6.148;2023-04-24T05:55:01;7.60;;;6.23;;
38425;SDS011;24210;51.460;6.148;2023-04-24T05:57:27;6.27;;;5.53;;
38425;SDS011;24210;51.460;6.148;2023-04-24T05:59:52;6.20;;;4.70;;
38425;SDS011;24210;51.460;6.148;2023-04-24T06:02:17;6.67;;;5.07;;
38425;SDS011;24210;51.460;6.148;2023-04-24T06:04:42;5.67;;;5.10;;
38425;SDS011;24210;51.460;6.148;2023-04-24T06:07:09;6.43;;;5.80;;
38425;SDS011;24210;51.460;6.148;2023-04-24T06:12:00;7.07;;;4.65;;
38425;SDS011;24210;51.460;6.148;2023-04-24T06:14:25;4.43;;;4.03;;
38425;SDS011;24210;51.460;6.148;2023-04-24T06:16:50;4.53;;;3.53;;
38425;SDS011;24210;51.460;6.148;2023-04-24T06:19:16;4.50;;;3.30;;
38425;SDS011;24210;51.460;6.148;2023-04-24T06:21:41;5.70;;;1.93;;
38425;SDS011;24210;51.460;6.148;2023-04-24T06:24:06;8.40;;;1.37;;
38425;SDS011;24210;51.460;6.148;2023-04-24T06:26:31;2.97;;;1.93;;
38425;SDS011;24210;51.460;6.148;2023-04-24T06:28:57;1.37;;;1.20;;
38425;SDS011;24210;51.460;6.148;2023-04-24T06:31:24;2.13;;;0.65;;
38425;SDS011;24210;51.460;6.148;2023-04-24T06:33:49;2.47;;;1.60;;
38425;SDS011;24210;51.460;6.148;2023-04-24T06:36:14;0.83;;;0.83;;
38425;SDS011;24210;51.460;6.148;2023-04-24T06:38:40;0.73;;;0.40;;
38425;SDS011;24210;51.460;6.148;2023-04-24T06:41:06;1.20;;;0.47;;
38425;SDS011;24210;51.460;6.148;2023-04-24T06:43:31;2.17;;;0.77;;
38425;SDS011;24210;51.460;6.148;2023-04-24T06:45:57;0.87;;;0.70;;
38425;SDS011;24210;51.460;6.148;2023-04-24T06:48:22;1.30;;;0.43;;
38425;SDS011;24210;51.460;6.148;2023-04-24T06:50:47;0.20;;;0.17;;
38425;SDS011;24210;51.460;6.148;2023-04-24T06:53:12;0.30;;;0.30;;
38425;SDS011;24210;51.460;6.148;2023-04-24T06:55:39;0.73;;;0.40;;
38425;SDS011;24210;51.460;6.148;2023-04-24T06:58:04;1.97;;;0.70;;
38425;SDS011;24210;51.460;6.148;2023-04-24T07:00:31;2.22;;;0.50;;
38425;SDS011;24210;51.460;6.148;2023-04-24T07:02:56;0.40;;;0.40;;
38425;SDS011;24210;51.460;6.148;2023-04-24T07:05:22;0.50;;;0.50;;
38425;SDS011;24210;51.460;6.148;2023-04-24T07:07:48;0.37;;;0.33;;
38425;SDS011;24210;51.460;6.148;2023-04-24T07:10:14;1.42;;;0.95;;
38425;SDS011;24210;51.460;6.148;2023-04-24T07:12:39;0.40;;;0.40;;
38425;SDS011;24210;51.460;6.148;2023-04-24T07:15:05;2.03;;;0.40;;
38425;SDS011;24210;51.460;6.148;2023-04-24T07:17:31;2.27;;;0.77;;
38425;SDS011;24210;51.460;6.148;2023-04-24T07:19:56;0.60;;;0.50;;
38425;SDS011;24210;51.460;6.148;2023-04-24T07:22:21;0.83;;;0.73;;
38425;SDS011;24210;51.460;6.148;2023-04-24T07:24:46;0.50;;;0.50;;
38425;SDS011;24210;51.460;6.148;2023-04-24T07:27:12;0.70;;;0.53;;
38425;SDS011;24210;51.460;6.148;2023-04-24T07:29:37;1.87;;;0.40;;
38425;SDS011;24210;51.460;6.148;2023-04-24T07:32:03;1.10;;;0.40;;
38425;SDS011;24210;51.460;6.148;2023-04-24T07:34:28;0.37;;;0.13;;
38425;SDS011;24210;51.460;6.148;2023-04-24T07:36:54;0.50;;;0.30;;
38425;SDS011;24210;51.460;6.148;2023-04-24T07:39:19;0.57;;;0.27;;
38425;SDS011;24210;51.460;6.148;2023-04-24T07:41:44;0.30;;;0.20;;
38425;SDS011;24210;51.460;6.148;2023-04-24T07:44:10;1.17;;;0.47;;
38425;SDS011;24210;51.460;6.148;2023-04-24T07:46:35;2.90;;;0.57;;
38425;SDS011;24210;51.460;6.148;2023-04-24T07:49:00;0.50;;;0.20;;
38425;SDS011;24210;51.460;6.148;2023-04-24T07:51:26;1.90;;;0.33;;
38425;SDS011;24210;51.460;6.148;2023-04-24T07:53:52;0.20;;;0.20;;
38425;SDS011;24210;51.460;6.148;2023-04-24T07:56:18;0.53;;;0.10;;
38425;SDS011;24210;51.460;6.148;2023-04-24T07:58:43;0.50;;;0.10;;
38425;SDS011;24210;51.460;6.148;2023-04-24T08:01:08;0.60;;;0.20;;
38425;SDS011;24210;51.460;6.148;2023-04-24T08:03:33;0.13;;;0.07;;
38425;SDS011;24210;51.460;6.148;2023-04-24T08:05:59;0.97;;;0.10;;
38425;SDS011;24210;51.460;6.148;2023-04-24T08:08:24;0.70;;;0.20;;
38425;SDS011;24210;51.460;6.148;2023-04-24T08:10:49;0.90;;;0.33;;
38425;SDS011;24210;51.460;6.148;2023-04-24T08:13:15;2.97;;;2.53;;
38425;SDS011;24210;51.460;6.148;2023-04-24T08:15:40;4.23;;;2.80;;
38425;SDS011;24210;51.460;6.148;2023-04-24T08:18:05;3.80;;;1.60;;
38425;SDS011;24210;51.460;6.148;2023-04-24T08:20:30;5.37;;;3.40;;
38425;SDS011;24210;51.460;6.148;2023-04-24T08:22:56;3.73;;;2.50;;
38425;SDS011;24210;51.460;6.148;2023-04-24T08:25:21;4.40;;;2.97;;
38425;SDS011;24210;51.460;6.148;2023-04-24T08:27:48;0.68;;;0.65;;
38425;SDS011;24210;51.460;6.148;2023-04-24T08:30:13;2.87;;;1.57;;
38425;SDS011;24210;51.460;6.148;2023-04-24T08:32:39;3.57;;;1.70;;
38425;SDS011;24210;51.460;6.148;2023-04-24T08:35:04;5.67;;;4.17;;
38425;SDS011;24210;51.460;6.148;2023-04-24T08:37:29;4.00;;;2.17;;
38425;SDS011;24210;51.460;6.148;2023-04-24T08:39:55;6.43;;;4.07;;
38425;SDS011;24210;51.460;6.148;2023-04-24T08:42:21;4.57;;;3.40;;
38425;SDS011;24210;51.460;6.148;2023-04-24T08:44:46;4.27;;;2.93;;
38425;SDS011;24210;51.460;6.148;2023-04-24T08:47:13;5.88;;;3.90;;
38425;SDS011;24210;51.460;6.148;2023-04-24T08:52:05;5.57;;;2.57;;
38425;SDS011;24210;51.460;6.148;2023-04-24T08:54:31;4.40;;;2.80;;
38425;SDS011;24210;51.460;6.148;2023-04-24T08:56:59;3.53;;;1.47;;
38425;SDS011;24210;51.460;6.148;2023-04-24T08:59:26;8.75;;;3.70;;
38425;SDS011;24210;51.460;6.148;2023-04-24T09:01:51;7.03;;;4.37;;
38425;SDS011;24210;51.460;6.148;2023-04-24T09:04:17;5.10;;;3.93;;
38425;SDS011;24210;51.460;6.148;2023-04-24T09:06:44;8.30;;;3.10;;
38425;SDS011;24210;51.460;6.148;2023-04-24T09:09:10;3.97;;;3.00;;
38425;SDS011;24210;51.460;6.148;2023-04-24T09:11:36;7.90;;;2.95;;
38425;SDS011;24210;51.460;6.148;2023-04-24T09:14:02;6.07;;;2.67;;
38425;SDS011;24210;51.460;6.148;2023-04-24T09:16:27;5.67;;;2.60;;
38425;SDS011;24210;51.460;6.148;2023-04-24T09:18:52;8.40;;;2.67;;
38425;SDS011;24210;51.460;6.148;2023-04-24T09:21:19;4.57;;;2.10;;
38425;SDS011;24210;51.460;6.148;2023-04-24T09:23:45;5.78;;;2.50;;
38425;SDS011;24210;51.460;6.148;2023-04-24T09:26:10;5.37;;;2.97;;
38425;SDS011;24210;51.460;6.148;2023-04-24T09:28:36;6.37;;;3.07;;
38425;SDS011;24210;51.460;6.148;2023-04-24T09:31:09;10.77;;;3.17;;
38425;SDS011;24210;51.460;6.148;2023-04-24T09:33:35;3.60;;;1.90;;
38425;SDS011;24210;51.460;6.148;2023-04-24T09:36:00;7.20;;;2.73;;
38425;SDS011;24210;51.460;6.148;2023-04-24T09:38:33;7.67;;;2.80;;
38425;SDS011;24210;51.460;6.148;2023-04-24T09:41:05;5.18;;;2.50;;
38425;SDS011;24210;51.460;6.148;2023-04-24T09:43:31;4.88;;;1.90;;
38425;SDS011;24210;51.460;6.148;2023-04-24T09:45:57;10.43;;;2.60;;
38425;SDS011;24210;51.460;6.148;2023-04-24T09:48:33;5.78;;;2.92;;
38425;SDS011;24210;51.460;6.148;2023-04-24T09:50:59;5.70;;;2.45;;
38425;SDS011;24210;51.460;6.148;2023-04-24T09:53:25;10.27;;;3.53;;
38425;SDS011;24210;51.460;6.148;2023-04-24T09:55:51;10.07;;;2.57;;
38425;SDS011;24210;51.460;6.148;2023-04-24T09:58:18;8.18;;;1.83;;
38425;SDS011;24210;51.460;6.148;2023-04-24T10:00:43;6.73;;;3.27;;
38425;SDS011;24210;51.460;6.148;2023-04-24T10:03:10;13.73;;;3.03;;
38425;SDS011;24210;51.460;6.148;2023-04-24T10:05:36;5.93;;;2.10;;
38425;SDS011;24210;51.460;6.148;2023-04-24T10:10:28;7.53;;;2.17;;
38425;SDS011;24210;51.460;6.148;2023-04-24T10:12:53;4.77;;;1.90;;
38425;SDS011;24210;51.460;6.148;2023-04-24T10:15:19;9.20;;;2.63;;
38425;SDS011;24210;51.460;6.148;2023-04-24T10:17:47;12.07;;;3.08;;
38425;SDS011;24210;51.460;6.148;2023-04-24T10:20:17;13.52;;;2.85;;
38425;SDS011;24210;51.460;6.148;2023-04-24T10:22:42;12.43;;;3.57;;
38425;SDS011;24210;51.460;6.148;2023-04-24T10:25:09;4.77;;;1.50;;
38425;SDS011;24210;51.460;6.148;2023-04-24T10:27:35;1.15;;;0.30;;
38425;SDS011;24210;51.460;6.148;2023-04-24T10:30:01;7.25;;;2.13;;
38425;SDS011;24210;51.460;6.148;2023-04-24T10:32:26;6.07;;;1.23;;
38425;SDS011;24210;51.460;6.148;2023-04-24T10:34:51;5.47;;;2.07;;
38425;SDS011;24210;51.460;6.148;2023-04-24T10:37:17;5.47;;;1.77;;
38425;SDS011;24210;51.460;6.148;2023-04-24T10:39:42;7.97;;;3.53;;
38425;SDS011;24210;51.460;6.148;2023-04-24T10:42:17;7.20;;;1.87;;
38425;SDS011;24210;51.460;6.148;2023-04-24T10:44:42;5.70;;;2.00;;
38425;SDS011;24210;51.460;6.148;2023-04-24T10:47:12;9.83;;;1.90;;
38425;SDS011;24210;51.460;6.148;2023-04-24T10:49:37;5.93;;;3.38;;
38425;SDS011;24210;51.460;6.148;2023-04-24T10:52:03;9.50;;;2.03;;
38425;SDS011;24210;51.460;6.148;2023-04-24T10:54:35;3.88;;;1.30;;
38425;SDS011;24210;51.460;6.148;2023-04-24T10:59:45;6.63;;;2.20;;
38425;SDS011;24210;51.460;6.148;2023-04-24T11:02:10;6.37;;;2.13;;
38425;SDS011;24210;51.460;6.148;2023-04-24T11:04:39;8.57;;;2.55;;
38425;SDS011;24210;51.460;6.148;2023-04-24T11:07:04;5.47;;;1.90;;
38425;SDS011;24210;51.460;6.148;2023-04-24T11:09:30;10.10;;;2.40;;
38425;SDS011;24210;51.460;6.148;2023-04-24T11:12:05;5.63;;;1.58;;
38425;SDS011;24210;51.460;6.148;2023-04-24T11:14:59;2.42;;;1.27;;
38425;SDS011;24210;51.460;6.148;2023-04-24T11:20:04;9.15;;;2.78;;
38425;SDS011;24210;51.460;6.148;2023-04-24T11:22:32;7.30;;;1.48;;
38425;SDS011;24210;51.460;6.148;2023-04-24T11:24:59;3.35;;;1.77;;
38425;SDS011;24210;51.460;6.148;2023-04-24T11:27:27;3.97;;;1.52;;
38425;SDS011;24210;51.460;6.148;2023-04-24T11:32:27;9.27;;;1.53;;
38425;SDS011;24210;51.460;6.148;2023-04-24T11:34:53;1.92;;;1.08;;
38425;SDS011;24210;51.460;6.148;2023-04-24T11:37:19;5.18;;;0.98;;
38425;SDS011;24210;51.460;6.148;2023-04-24T11:39:44;3.20;;;0.87;;
38425;SDS011;24210;51.460;6.148;2023-04-24T11:42:09;1.70;;;0.60;;
38425;SDS011;24210;51.460;6.148;2023-04-24T11:44:35;1.60;;;0.70;;
38425;SDS011;24210;51.460;6.148;2023-04-24T11:47:04;4.93;;;0.70;;
38425;SDS011;24210;51.460;6.148;2023-04-24T11:49:29;0.73;;;0.28;;
38425;SDS011;24210;51.460;6.148;2023-04-24T11:51:55;2.47;;;0.70;;
38425;SDS011;24210;51.460;6.148;2023-04-24T11:54:20;4.40;;;0.73;;
38425;SDS011;24210;51.460;6.148;2023-04-24T11:56:49;1.93;;;0.83;;
38425;SDS011;24210;51.460;6.148;2023-04-24T11:59:14;3.08;;;0.85;;
38425;SDS011;24210;51.460;6.148;2023-04-24T12:01:43;1.20;;;0.43;;
38425;SDS011;24210;51.460;6.148;2023-04-24T12:04:09;1.10;;;0.50;;
38425;SDS011;24210;51.460;6.148;2023-04-24T12:06:34;4.83;;;0.57;;
38425;SDS011;24210;51.460;6.148;2023-04-24T12:08:59;5.23;;;0.60;;
38425;SDS011;24210;51.460;6.148;2023-04-24T12:11:25;2.10;;;0.60;;
38425;SDS011;24210;51.460;6.148;2023-04-24T12:13:50;5.03;;;1.00;;
38425;SDS011;24210;51.460;6.148;2023-04-24T12:16:16;2.13;;;0.37;;
38425;SDS011;24210;51.460;6.148;2023-04-24T12:18:41;3.30;;;1.80;;
38425;SDS011;24210;51.460;6.148;2023-04-24T12:21:17;2.00;;;0.50;;
38425;SDS011;24210;51.460;6.148;2023-04-24T12:23:43;2.50;;;0.35;;
38425;SDS011;24210;51.460;6.148;2023-04-24T12:28:35;2.03;;;0.43;;
38425;SDS011;24210;51.460;6.148;2023-04-24T12:31:01;4.10;;;0.60;;
38425;SDS011;24210;51.460;6.148;2023-04-24T12:33:26;3.70;;;0.63;;
38425;SDS011;24210;51.460;6.148;2023-04-24T12:35:52;2.80;;;0.70;;
38425;SDS011;24210;51.460;6.148;2023-04-24T12:38:23;3.78;;;0.63;;
38425;SDS011;24210;51.460;6.148;2023-04-24T12:40:58;6.28;;;1.13;;
38425;SDS011;24210;51.460;6.148;2023-04-24T12:43:25;3.67;;;0.68;;
38425;SDS011;24210;51.460;6.148;2023-04-24T12:45:51;3.93;;;1.10;;
38425;SDS011;24210;51.460;6.148;2023-04-24T12:48:16;1.70;;;0.43;;
38425;SDS011;24210;51.460;6.148;2023-04-24T12:50:41;2.27;;;0.43;;
38425;SDS011;24210;51.460;6.148;2023-04-24T12:53:08;2.22;;;1.02;;
38425;SDS011;24210;51.460;6.148;2023-04-24T12:55:33;3.53;;;0.50;;
38425;SDS011;24210;51.460;6.148;2023-04-24T12:57:59;1.73;;;0.63;;
38425;SDS011;24210;51.460;6.148;2023-04-24T13:00:24;3.70;;;1.00;;
38425;SDS011;24210;51.460;6.148;2023-04-24T13:02:49;3.23;;;0.60;;
38425;SDS011;24210;51.460;6.148;2023-04-24T13:05:14;4.67;;;0.83;;
38425;SDS011;24210;51.460;6.148;2023-04-24T13:07:40;6.07;;;0.97;;
38425;SDS011;24210;51.460;6.148;2023-04-24T13:10:06;3.10;;;0.53;;
38425;SDS011;24210;51.460;6.148;2023-04-24T13:12:31;1.73;;;0.47;;
38425;SDS011;24210;51.460;6.148;2023-04-24T13:14:57;2.70;;;0.43;;
38425;SDS011;24210;51.460;6.148;2023-04-24T13:17:22;2.93;;;0.67;;
38425;SDS011;24210;51.460;6.148;2023-04-24T13:19:49;3.87;;;0.63;;
38425;SDS011;24210;51.460;6.148;2023-04-24T13:22:14;2.50;;;0.68;;
38425;SDS011;24210;51.460;6.148;2023-04-24T13:24:39;3.50;;;0.67;;
38425;SDS011;24210;51.460;6.148;2023-04-24T13:27:06;1.27;;;0.30;;
38425;SDS011;24210;51.460;6.148;2023-04-24T13:29:31;1.67;;;0.67;;
38425;SDS011;24210;51.460;6.148;2023-04-24T13:31:56;0.93;;;0.33;;
38425;SDS011;24210;51.460;6.148;2023-04-24T13:34:25;3.80;;;0.40;;
38425;SDS011;24210;51.460;6.148;2023-04-24T13:36:50;1.13;;;1.02;;
38425;SDS011;24210;51.460;6.148;2023-04-24T13:39:16;1.43;;;0.60;;
38425;SDS011;24210;51.460;6.148;2023-04-24T13:41:41;1.47;;;0.20;;
38425;SDS011;24210;51.460;6.148;2023-04-24T13:44:07;3.65;;;0.68;;
38425;SDS011;24210;51.460;6.148;2023-04-24T13:46:33;1.27;;;0.50;;
38425;SDS011;24210;51.460;6.148;2023-04-24T13:48:58;3.03;;;0.87;;
38425;SDS011;24210;51.460;6.148;2023-04-24T13:51:25;1.70;;;0.50;;
38425;SDS011;24210;51.460;6.148;2023-04-24T13:53:52;2.95;;;0.40;;
38425;SDS011;24210;51.460;6.148;2023-04-24T13:56:17;1.00;;;0.43;;
38425;SDS011;24210;51.460;6.148;2023-04-24T13:58:42;3.00;;;0.57;;
38425;SDS011;24210;51.460;6.148;2023-04-24T14:01:07;0.80;;;0.40;;
38425;SDS011;24210;51.460;6.148;2023-04-24T14:03:33;1.10;;;0.40;;
38425;SDS011;24210;51.460;6.148;2023-04-24T14:05:58;2.07;;;0.67;;
38425;SDS011;24210;51.460;6.148;2023-04-24T14:08:23;2.47;;;0.50;;
38425;SDS011;24210;51.460;6.148;2023-04-24T14:10:49;1.97;;;1.30;;
38425;SDS011;24210;51.460;6.148;2023-04-24T14:13:15;3.17;;;0.68;;
38425;SDS011;24210;51.460;6.148;2023-04-24T14:15:40;1.70;;;0.40;;
38425;SDS011;24210;51.460;6.148;2023-04-24T14:18:06;1.63;;;0.50;;
38425;SDS011;24210;51.460;6.148;2023-04-24T14:20:31;1.43;;;0.20;;
38425;SDS011;24210;51.460;6.148;2023-04-24T14:22:57;2.03;;;0.70;;
38425;SDS011;24210;51.460;6.148;2023-04-24T14:25:25;1.35;;;0.52;;
38425;SDS011;24210;51.460;6.148;2023-04-24T14:27:50;2.53;;;0.40;;
38425;SDS011;24210;51.460;6.148;2023-04-24T14:30:15;0.67;;;0.30;;
38425;SDS011;24210;51.460;6.148;2023-04-24T14:32:41;4.07;;;0.87;;
38425;SDS011;24210;51.460;6.148;2023-04-24T14:35:06;3.37;;;0.60;;
38425;SDS011;24210;51.460;6.148;2023-04-24T14:37:32;1.93;;;0.57;;
38425;SDS011;24210;51.460;6.148;2023-04-24T14:39:57;1.03;;;0.53;;
38425;SDS011;24210;51.460;6.148;2023-04-24T14:42:22;1.23;;;0.70;;
38425;SDS011;24210;51.460;6.148;2023-04-24T14:44:48;1.67;;;0.60;;
38425;SDS011;24210;51.460;6.148;2023-04-24T14:47:13;1.43;;;0.50;;
38425;SDS011;24210;51.460;6.148;2023-04-24T14:49:38;2.37;;;0.70;;
38425;SDS011;24210;51.460;6.148;2023-04-24T14:52:03;1.93;;;0.70;;